Time;durP1;ratioP1;P1;durP2;ratioP2;P2;SDS_P1;SDS_P2;PMS_P1;PMS_P2;Temp;Humidity;BMP_temperature;BMP_pressure;BME280_temperature;BME280_humidity;BME280_pressure;Samples;Min_cycle;Max_cycle;Signal;HPM_P1;HPM_P2
2021/08/12 00:01:56;;;;;;;7.47;5.50;;;25.50;79.70;;;;;;5113099;28;20048;-49
2021/08/12 00:04:22;;;;;;;10.13;6.18;;;25.50;79.80;;;;;;5114073;28;20380;-51
2021/08/12 00:06:49;;;;;;;7.90;6.40;;;25.50;80.10;;;;;;5113136;28;20046;-50
2021/08/12 00:09:15;;;;;;;8.88;5.85;;;25.50;80.50;;;;;;5113171;28;20035;-53
2021/08/12 00:11:42;;;;;;;9.38;6.13;;;25.50;80.50;;;;;;5113110;28;20043;-50
2021/08/12 00:14:09;;;;;;;9.65;6.18;;;25.40;80.40;;;;;;5112952;28;20044;-51
2021/08/12 00:16:36;;;;;;;8.85;6.85;;;25.40;80.60;;;;;;5113897;28;20024;-49
2021/08/12 00:19:03;;;;;;;7.15;6.18;;;25.30;80.90;;;;;;5112656;28;20062;-52
2021/08/12 00:21:30;;;;;;;7.68;6.32;;;25.30;81.10;;;;;;5113013;28;20055;-55
2021/08/12 00:23:57;;;;;;;9.20;5.97;;;25.30;80.90;;;;;;5113559;28;20031;-50
2021/08/12 00:26:23;;;;;;;9.98;6.43;;;25.30;80.60;;;;;;5112898;28;20046;-51
2021/08/12 00:28:50;;;;;;;9.18;6.40;;;25.30;80.70;;;;;;5112375;28;20048;-51
2021/08/12 00:31:16;;;;;;;11.65;7.65;;;25.30;80.70;;;;;;5112036;28;20044;-53
2021/08/12 00:33:43;;;;;;;8.50;6.10;;;25.30;80.60;;;;;;5111725;27;20039;-52
2021/08/12 00:36:09;;;;;;;7.97;6.10;;;25.20;80.60;;;;;;5112668;28;20035;-52
2021/08/12 00:38:36;;;;;;;10.65;6.60;;;25.20;80.80;;;;;;5111659;28;20051;-59
2021/08/12 00:41:02;;;;;;;8.13;6.38;;;25.10;80.90;;;;;;5110043;28;20039;-53
2021/08/12 00:43:31;;;;;;;10.32;6.88;;;25.10;81.00;;;;;;5112394;28;20039;-52
2021/08/12 00:45:57;;;;;;;10.05;6.32;;;25.10;81.40;;;;;;5112142;28;20043;-53
2021/08/12 00:48:25;;;;;;;12.02;7.15;;;25.10;81.60;;;;;;5111734;28;20040;-54
2021/08/12 00:50:52;;;;;;;8.18;6.43;;;25.00;82.50;;;;;;5112175;28;20058;-54
2021/08/12 00:53:21;;;;;;;8.63;6.90;;;25.00;81.70;;;;;;5112744;28;20043;-49
2021/08/12 00:55:48;;;;;;;8.85;6.30;;;25.00;81.80;;;;;;5111934;28;20024;-53
2021/08/12 00:58:18;;;;;;;10.82;7.63;;;25.00;82.00;;;;;;5111503;28;20046;-52
2021/08/12 01:00:49;;;;;;;8.45;6.13;;;24.90;82.30;;;;;;5110747;28;20484;-52
2021/08/12 01:03:19;;;;;;;8.75;6.60;;;24.90;82.20;;;;;;5111401;28;20052;-48
2021/08/12 01:05:55;;;;;;;7.72;6.60;;;24.90;82.50;;;;;;5110656;28;20538;-53
2021/08/12 01:08:37;;;;;;;10.30;6.50;;;24.90;82.50;;;;;;5110584;28;20054;-53
2021/08/12 01:11:43;;;;;;;7.75;6.85;;;24.90;82.80;;;;;;5111111;28;20040;-51
2021/08/12 01:14:16;;;;;;;7.25;6.53;;;24.80;83.10;;;;;;5113035;28;20043;-54
2021/08/12 01:16:51;;;;;;;8.85;7.30;;;24.80;82.90;;;;;;5114729;28;20035;-49
2021/08/12 01:20:09;;;;;;;10.20;6.95;;;24.80;83.00;;;;;;5115929;28;20035;-52
2021/08/12 01:22:41;;;;;;;7.97;6.93;;;24.80;83.40;;;;;;5115538;28;20051;-54
2021/08/12 01:25:26;;;;;;;10.45;8.05;;;24.80;83.50;;;;;;5115634;28;20043;-54
2021/08/12 01:27:58;;;;;;;10.60;6.97;;;24.70;83.60;;;;;;5114400;28;20031;-55
2021/08/12 01:30:30;;;;;;;8.20;6.93;;;24.70;83.40;;;;;;5113805;28;20036;-51
2021/08/12 01:33:05;;;;;;;7.97;7.18;;;24.70;83.60;;;;;;5116736;28;20059;-50
2021/08/12 01:35:36;;;;;;;8.77;7.88;;;24.70;83.80;;;;;;5116120;28;20056;-49
2021/08/12 01:38:12;;;;;;;8.23;7.43;;;24.70;83.90;;;;;;5116195;28;20054;-54
2021/08/12 01:40:39;;;;;;;9.60;7.80;;;24.60;84.20;;;;;;5114418;28;20039;-53
2021/08/12 01:43:15;;;;;;;9.48;6.85;;;24.60;84.40;;;;;;5114958;28;20050;-55
2021/08/12 01:45:57;;;;;;;8.88;7.57;;;24.60;84.60;;;;;;5114823;28;20039;-53
2021/08/12 01:48:25;;;;;;;7.68;6.88;;;24.60;84.80;;;;;;5114569;28;20032;-47
2021/08/12 01:50:55;;;;;;;8.93;7.60;;;24.60;84.70;;;;;;5114224;28;20388;-52
2021/08/12 01:53:24;;;;;;;7.80;7.00;;;24.60;84.60;;;;;;5114737;28;20044;-52
2021/08/12 01:55:52;;;;;;;9.30;7.22;;;24.60;84.20;;;;;;5115761;28;20027;-52
2021/08/12 01:58:22;;;;;;;11.70;7.50;;;24.50;84.50;;;;;;5115344;28;20028;-54
2021/08/12 02:00:52;;;;;;;8.45;7.60;;;24.40;84.90;;;;;;5115340;28;20035;-52
2021/08/12 02:03:21;;;;;;;8.05;7.07;;;24.40;86.00;;;;;;5113627;28;20486;-54
2021/08/12 02:05:50;;;;;;;13.35;7.63;;;24.40;85.50;;;;;;5113083;28;20067;-51
2021/08/12 02:08:21;;;;;;;13.60;7.63;;;24.40;85.70;;;;;;5113435;28;20047;-51
2021/08/12 02:10:51;;;;;;;10.35;7.18;;;24.40;85.80;;;;;;5114095;28;20395;-49
2021/08/12 02:13:19;;;;;;;10.32;7.93;;;24.40;85.60;;;;;;5113998;28;20062;-54
2021/08/12 02:15:45;;;;;;;9.50;8.50;;;24.40;85.50;;;;;;5113580;28;20043;-56
2021/08/12 02:18:12;;;;;;;7.63;6.72;;;24.40;85.80;;;;;;5113500;28;20038;-49
2021/08/12 02:20:41;;;;;;;9.88;7.30;;;24.40;86.00;;;;;;5116382;28;20039;-53
2021/08/12 02:23:22;;;;;;;11.55;7.68;;;24.40;85.40;;;;;;5115039;28;20034;-49
2021/08/12 02:25:54;;;;;;;9.15;8.23;;;24.30;85.80;;;;;;5114248;28;20048;-53
2021/08/12 02:28:21;;;;;;;8.27;7.47;;;24.30;86.10;;;;;;5112907;28;20488;-51
2021/08/12 02:30:51;;;;;;;13.30;8.27;;;24.30;85.80;;;;;;5114799;28;20036;-53
2021/08/12 02:33:23;;;;;;;7.18;6.45;;;24.30;85.60;;;;;;5113243;28;20044;-53
2021/08/12 02:35:51;;;;;;;10.50;7.55;;;24.30;85.80;;;;;;5114863;28;20395;-53
2021/08/12 02:38:20;;;;;;;9.65;7.93;;;24.20;86.00;;;;;;5113721;28;20044;-54
2021/08/12 02:40:50;;;;;;;10.70;8.55;;;24.20;86.00;;;;;;5113305;28;20059;-54
2021/08/12 02:43:19;;;;;;;8.30;7.30;;;24.20;86.20;;;;;;5114258;28;20047;-51
2021/08/12 02:45:47;;;;;;;10.48;7.97;;;24.20;86.60;;;;;;5114967;28;20039;-54
2021/08/12 02:48:14;;;;;;;10.98;8.07;;;24.10;86.60;;;;;;5114336;28;20048;-53
2021/08/12 02:50:45;;;;;;;9.02;7.90;;;24.10;86.80;;;;;;5114373;28;20028;-49
2021/08/12 02:53:12;;;;;;;10.80;7.70;;;24.10;86.90;;;;;;5114202;28;20040;-50
2021/08/12 02:55:39;;;;;;;9.93;7.78;;;24.10;86.80;;;;;;5115081;28;20261;-52
2021/08/12 02:58:07;;;;;;;9.90;7.57;;;24.10;86.90;;;;;;5114572;28;20511;-49
2021/08/12 03:00:34;;;;;;;8.30;7.10;;;24.10;86.80;;;;;;5114487;28;20036;-52
2021/08/12 03:03:04;;;;;;;8.55;7.55;;;24.10;86.60;;;;;;5113876;28;20039;-51
2021/08/12 03:05:33;;;;;;;9.18;6.95;;;24.00;86.30;;;;;;5114054;28;20039;-49
2021/08/12 03:08:01;;;;;;;8.43;7.53;;;24.00;86.10;;;;;;5112567;28;20392;-54
2021/08/12 03:10:29;;;;;;;10.38;7.70;;;23.90;86.40;;;;;;5115376;28;20044;-48
2021/08/12 03:12:59;;;;;;;8.27;7.43;;;23.90;87.00;;;;;;5112740;28;20036;-50
2021/08/12 03:15:27;;;;;;;11.05;7.88;;;23.90;87.00;;;;;;5114887;28;20467;-48
2021/08/12 03:17:54;;;;;;;9.85;8.23;;;23.80;87.10;;;;;;5112972;28;20036;-52
2021/08/12 03:20:28;;;;;;;8.80;7.88;;;23.80;87.30;;;;;;5113646;28;20036;-49
2021/08/12 03:22:57;;;;;;;8.15;6.53;;;23.70;87.70;;;;;;5113430;28;20044;-52
2021/08/12 03:25:25;;;;;;;9.57;7.47;;;23.70;87.80;;;;;;5114206;28;20491;-48
2021/08/12 03:27:52;;;;;;;12.25;8.60;;;23.70;87.90;;;;;;5113143;28;20035;-51
2021/08/12 03:30:19;;;;;;;8.35;7.47;;;23.80;87.80;;;;;;5114084;28;20062;-50
2021/08/12 03:32:46;;;;;;;11.18;7.45;;;23.70;87.80;;;;;;5113667;28;20510;-52
2021/08/12 03:35:12;;;;;;;8.73;6.90;;;23.70;87.60;;;;;;5114048;28;20387;-51
2021/08/12 03:37:39;;;;;;;10.70;7.30;;;23.70;87.60;;;;;;5113891;28;20024;-49
2021/08/12 03:40:09;;;;;;;10.38;7.63;;;23.70;87.30;;;;;;5113191;28;20028;-54
2021/08/12 03:42:36;;;;;;;9.75;8.50;;;23.70;87.10;;;;;;5111997;28;20040;-51
2021/08/12 03:45:03;;;;;;;9.15;8.32;;;23.70;87.20;;;;;;5112924;28;20526;-52
2021/08/12 03:47:31;;;;;;;8.93;6.93;;;23.70;87.80;;;;;;5113008;28;20039;-49
2021/08/12 03:49:58;;;;;;;8.90;7.47;;;23.60;87.80;;;;;;5111913;28;20047;-49
2021/08/12 03:52:25;;;;;;;12.35;7.88;;;23.70;87.90;;;;;;5112386;28;20031;-51
2021/08/12 03:54:51;;;;;;;10.23;7.38;;;23.70;87.70;;;;;;5113270;28;20035;-53
2021/08/12 03:57:18;;;;;;;8.77;7.15;;;23.70;87.60;;;;;;5112845;28;20039;-54
2021/08/12 03:59:49;;;;;;;12.95;8.05;;;23.70;87.60;;;;;;5112766;28;20391;-54
2021/08/12 04:02:15;;;;;;;9.48;6.97;;;23.70;87.50;;;;;;5111814;28;20051;-52
2021/08/12 04:04:42;;;;;;;7.78;6.60;;;23.70;87.20;;;;;;5113322;28;20047;-51
2021/08/12 04:07:09;;;;;;;10.30;8.48;;;23.70;87.30;;;;;;5113297;28;20058;-54
2021/08/12 04:09:36;;;;;;;7.30;6.53;;;23.70;87.30;;;;;;5111636;28;20044;-50
2021/08/12 04:12:03;;;;;;;8.73;7.82;;;23.70;87.00;;;;;;5113220;28;20391;-54
2021/08/12 04:14:30;;;;;;;7.75;6.95;;;23.70;87.30;;;;;;5111333;28;20040;-53
2021/08/12 04:16:57;;;;;;;8.18;6.93;;;23.60;87.10;;;;;;5111501;28;20474;-51
2021/08/12 04:19:25;;;;;;;8.77;7.95;;;23.60;86.90;;;;;;5111422;28;20040;-53
2021/08/12 04:21:51;;;;;;;8.60;7.10;;;23.60;86.70;;;;;;5111670;28;20050;-52
2021/08/12 04:24:19;;;;;;;10.02;7.40;;;23.50;86.90;;;;;;5113120;28;20043;-54
2021/08/12 04:26:46;;;;;;;8.70;7.22;;;23.50;86.90;;;;;;5112856;28;20048;-48
2021/08/12 04:29:13;;;;;;;8.45;7.63;;;23.50;86.70;;;;;;5111829;28;20047;-58
2021/08/12 04:31:40;;;;;;;9.10;7.78;;;23.50;86.60;;;;;;5112034;28;20071;-52
2021/08/12 04:34:07;;;;;;;11.15;7.50;;;23.40;86.70;;;;;;5113656;28;20032;-52
2021/08/12 04:36:34;;;;;;;12.38;7.63;;;23.40;87.00;;;;;;5113348;28;20047;-50
2021/08/12 04:39:01;;;;;;;10.00;7.72;;;23.30;87.20;;;;;;5111794;28;20391;-55
2021/08/12 04:41:27;;;;;;;8.48;6.82;;;23.30;87.60;;;;;;5111549;28;20404;-53
2021/08/12 04:43:54;;;;;;;8.30;7.25;;;23.20;87.80;;;;;;5111709;28;20032;-53
2021/08/12 04:46:25;;;;;;;9.75;7.47;;;23.20;87.80;;;;;;5095174;28;20043;-52
2021/08/12 04:48:51;;;;;;;9.32;8.30;;;23.20;88.00;;;;;;5111150;28;20042;-55
2021/08/12 04:51:18;;;;;;;11.48;8.30;;;23.30;87.70;;;;;;5112344;28;20035;-53
2021/08/12 04:53:44;;;;;;;8.35;7.05;;;23.30;88.00;;;;;;5111027;28;20058;-53
2021/08/12 04:56:11;;;;;;;8.85;7.32;;;23.20;87.90;;;;;;5111836;28;20047;-52
2021/08/12 04:58:37;;;;;;;10.48;7.85;;;23.30;87.60;;;;;;5112673;28;20047;-52
2021/08/12 05:01:04;;;;;;;11.88;7.85;;;23.30;87.00;;;;;;5110906;28;20062;-48
2021/08/12 05:03:30;;;;;;;10.88;7.63;;;23.30;87.00;;;;;;5111138;28;20057;-53
2021/08/12 05:06:04;;;;;;;10.63;8.15;;;23.30;87.00;;;;;;5112023;28;20047;-51
2021/08/12 05:08:31;;;;;;;9.23;7.47;;;23.30;87.00;;;;;;5111715;28;20039;-50
2021/08/12 05:10:58;;;;;;;12.40;7.97;;;23.30;85.80;;;;;;5110585;28;20066;-51
2021/08/12 05:13:24;;;;;;;10.98;7.60;;;23.30;85.70;;;;;;5111634;28;20050;-60
2021/08/12 05:15:51;;;;;;;9.48;8.07;;;23.30;86.10;;;;;;5112190;28;20023;-54
2021/08/12 05:18:18;;;;;;;14.85;8.10;;;23.30;86.30;;;;;;5113090;28;20035;-52
2021/08/12 05:20:44;;;;;;;8.32;7.45;;;23.30;86.70;;;;;;5112329;28;20052;-54
2021/08/12 05:23:11;;;;;;;10.82;8.23;;;23.30;87.00;;;;;;5110395;28;20499;-50
2021/08/12 05:25:43;;;;;;;10.25;7.95;;;23.30;87.10;;;;;;5110908;28;20043;-52
2021/08/12 05:28:14;;;;;;;11.82;7.65;;;23.40;87.00;;;;;;5110302;28;20054;-52
2021/08/12 05:30:40;;;;;;;9.25;8.07;;;23.50;87.20;;;;;;5111453;28;20023;-51
2021/08/12 05:33:07;;;;;;;8.77;7.63;;;23.50;86.90;;;;;;5113188;28;20047;-52
2021/08/12 05:35:34;;;;;;;9.93;8.23;;;23.50;86.70;;;;;;5111709;28;20498;-49
2021/08/12 05:38:00;;;;;;;10.35;7.80;;;23.50;86.70;;;;;;5110952;28;20055;-52
2021/08/12 05:40:27;;;;;;;12.50;8.35;;;23.60;86.60;;;;;;5111580;28;20047;-51
2021/08/12 05:42:54;;;;;;;11.85;7.85;;;23.60;86.80;;;;;;5111811;28;20027;-47
2021/08/12 05:45:21;;;;;;;9.95;8.80;;;23.60;86.90;;;;;;5110617;28;20391;-50
2021/08/12 05:47:47;;;;;;;11.88;8.65;;;23.70;86.60;;;;;;5111334;28;20051;-48
2021/08/12 05:50:14;;;;;;;12.55;8.90;;;23.70;86.60;;;;;;5111381;28;20036;-54
2021/08/12 05:52:40;;;;;;;11.35;8.63;;;23.70;86.90;;;;;;5110191;28;20407;-51
2021/08/12 05:55:08;;;;;;;14.10;8.15;;;23.70;87.00;;;;;;5110727;28;20051;-54
2021/08/12 05:57:34;;;;;;;11.20;7.93;;;23.80;87.00;;;;;;5111670;28;20024;-50
2021/08/12 06:00:01;;;;;;;9.82;7.90;;;23.90;86.60;;;;;;5113325;28;20506;-52
2021/08/12 06:02:32;;;;;;;8.38;7.45;;;23.90;86.60;;;;;;5114092;28;20066;-54
2021/08/12 06:05:00;;;;;;;11.35;7.68;;;23.90;86.10;;;;;;5114989;28;20051;-50
2021/08/12 06:07:27;;;;;;;9.25;7.65;;;24.00;86.40;;;;;;5113557;28;20530;-48
2021/08/12 06:09:53;;;;;;;9.80;7.65;;;24.00;86.40;;;;;;5115128;28;20044;-52
2021/08/12 06:12:20;;;;;;;23.00;8.23;;;24.10;86.10;;;;;;5114927;28;20024;-48
2021/08/12 06:14:47;;;;;;;15.52;9.07;;;24.20;85.70;;;;;;5115108;28;20035;-53
2021/08/12 06:17:13;;;;;;;10.45;7.53;;;24.20;85.10;;;;;;5116420;28;20035;-55
2021/08/12 06:19:41;;;;;;;10.02;6.95;;;24.80;82.70;;;;;;5114640;28;20028;-55
2021/08/12 06:22:08;;;;;;;13.02;7.45;;;26.40;72.90;;;;;;5114446;28;20047;-51
2021/08/12 06:24:35;;;;;;;6.93;6.22;;;27.70;66.40;;;;;;5114862;28;20035;-55
2021/08/12 06:27:02;;;;;;;9.15;5.82;;;28.50;60.30;;;;;;5114333;28;20483;-51
2021/08/12 06:29:29;;;;;;;7.25;6.13;;;29.10;57.50;;;;;;5113713;28;20036;-53
2021/08/12 06:31:57;;;;;;;9.15;6.28;;;29.50;56.20;;;;;;5113619;28;20059;-50
2021/08/12 06:34:23;;;;;;;10.20;6.18;;;29.40;56.00;;;;;;5113687;28;20044;-52
2021/08/12 06:36:50;;;;;;;10.40;6.68;;;28.60;58.10;;;;;;5113249;28;20039;-54
2021/08/12 06:39:17;;;;;;;9.90;6.90;;;27.70;60.50;;;;;;5114400;28;20460;-52
2021/08/12 06:41:43;;;;;;;11.02;6.53;;;27.20;62.60;;;;;;5115269;28;20047;-53
2021/08/12 06:44:11;;;;;;;8.40;6.32;;;26.80;63.50;;;;;;5114187;28;20039;-53
2021/08/12 06:46:37;;;;;;;11.13;6.75;;;26.60;65.20;;;;;;5114330;28;20040;-53
2021/08/12 06:49:08;;;;;;;9.77;6.75;;;26.50;66.30;;;;;;5113870;28;20047;-49
2021/08/12 06:51:39;;;;;;;8.38;7.30;;;26.40;67.40;;;;;;5113003;28;20097;-53
2021/08/12 06:54:05;;;;;;;8.13;6.55;;;26.40;66.90;;;;;;5113426;28;20047;-51
2021/08/12 06:56:33;;;;;;;8.80;6.80;;;26.50;67.00;;;;;;5113763;28;20039;-54
2021/08/12 06:59:00;;;;;;;10.02;6.68;;;26.60;67.10;;;;;;5113562;28;20044;-54
2021/08/12 07:01:26;;;;;;;11.55;6.22;;;26.70;67.10;;;;;;5113378;28;20066;-53
2021/08/12 07:03:54;;;;;;;7.63;6.18;;;26.70;66.80;;;;;;5113014;28;20044;-51
2021/08/12 07:06:22;;;;;;;7.82;6.32;;;26.90;66.60;;;;;;5113510;28;20042;-50
2021/08/12 07:08:52;;;;;;;9.23;6.60;;;26.90;65.80;;;;;;5113310;28;20035;-49
2021/08/12 07:11:20;;;;;;;9.82;6.88;;;26.90;64.90;;;;;;5111321;28;20044;-49
2021/08/12 07:13:49;;;;;;;10.43;6.88;;;27.00;64.50;;;;;;5112577;28;20063;-51
2021/08/12 07:16:16;;;;;;;8.73;6.73;;;27.00;64.50;;;;;;5113376;28;20030;-53
2021/08/12 07:18:48;;;;;;;12.63;7.65;;;27.10;64.90;;;;;;5113666;28;20043;-51
2021/08/12 07:21:19;;;;;;;11.05;6.65;;;27.20;65.20;;;;;;5113267;28;20380;-51
2021/08/12 07:23:48;;;;;;;14.70;7.55;;;27.30;64.50;;;;;;5113012;28;20051;-49
2021/08/12 07:26:16;;;;;;;9.88;6.60;;;27.40;64.00;;;;;;5113107;28;20039;-48
2021/08/12 07:28:44;;;;;;;10.73;6.38;;;27.50;62.80;;;;;;5113255;28;20032;-52
2021/08/12 07:31:13;;;;;;;10.63;7.15;;;27.60;62.50;;;;;;5111690;28;20593;-54
2021/08/12 07:33:40;;;;;;;9.52;7.00;;;27.60;63.50;;;;;;5112987;28;20050;-48
2021/08/12 07:36:07;;;;;;;8.15;5.90;;;27.70;63.20;;;;;;5113250;28;20032;-51
2021/08/12 07:38:34;;;;;;;11.07;6.70;;;27.70;63.90;;;;;;5112794;28;20035;-53
2021/08/12 07:41:02;;;;;;;9.68;7.28;;;27.80;62.80;;;;;;5111866;28;20059;-48
2021/08/12 07:43:29;;;;;;;11.50;7.22;;;27.90;61.80;;;;;;5111389;28;20376;-48
2021/08/12 07:45:55;;;;;;;12.95;6.25;;;27.90;60.90;;;;;;5113937;28;20031;-52
2021/08/12 07:48:22;;;;;;;11.02;6.53;;;28.00;60.80;;;;;;5111967;28;20345;-49
2021/08/12 07:50:48;;;;;;;8.18;6.25;;;28.10;60.80;;;;;;5112078;28;20044;-53
2021/08/12 07:53:15;;;;;;;9.75;6.32;;;28.10;60.00;;;;;;5113489;28;20036;-52
2021/08/12 07:55:41;;;;;;;8.75;6.72;;;28.20;59.90;;;;;;5113244;28;20051;-52
2021/08/12 07:58:08;;;;;;;8.98;6.30;;;28.20;60.20;;;;;;5113616;28;20036;-48
2021/08/12 08:00:34;;;;;;;10.75;5.65;;;28.20;59.20;;;;;;5112999;28;20050;-53
2021/08/12 08:03:01;;;;;;;9.35;5.72;;;28.30;58.80;;;;;;5113398;28;20035;-51
2021/08/12 08:05:29;;;;;;;8.77;5.95;;;28.40;58.60;;;;;;5111504;28;20515;-50
2021/08/12 08:07:56;;;;;;;8.15;6.10;;;28.50;58.80;;;;;;5112897;28;20161;-48
2021/08/12 08:10:26;;;;;;;8.32;6.40;;;28.50;58.70;;;;;;5113684;28;20027;-51
2021/08/12 08:12:53;;;;;;;10.07;6.32;;;28.50;58.80;;;;;;5113071;28;20046;-50
2021/08/12 08:15:21;;;;;;;8.07;6.57;;;28.60;59.20;;;;;;5113280;28;20073;-51
2021/08/12 08:17:48;;;;;;;8.55;5.93;;;28.70;58.50;;;;;;5113101;27;20058;-49
2021/08/12 08:20:15;;;;;;;10.18;6.15;;;28.60;57.80;;;;;;5113001;28;20043;-49
2021/08/12 08:22:42;;;;;;;7.28;6.57;;;28.50;58.40;;;;;;5112085;27;20051;-53
2021/08/12 08:25:10;;;;;;;8.38;6.20;;;28.50;58.10;;;;;;5112459;28;20452;-48
2021/08/12 08:27:36;;;;;;;10.20;6.93;;;28.60;57.60;;;;;;5112641;28;20143;-55
2021/08/12 08:30:04;;;;;;;9.73;6.40;;;28.60;58.00;;;;;;5113650;28;20348;-52
2021/08/12 08:32:32;;;;;;;7.45;5.97;;;28.70;58.40;;;;;;5112598;28;20047;-55
2021/08/12 08:34:59;;;;;;;9.55;6.35;;;28.80;58.60;;;;;;5113352;28;20032;-53
2021/08/12 08:37:26;;;;;;;10.80;7.47;;;28.80;57.80;;;;;;5113536;28;20040;-51
2021/08/12 08:39:53;;;;;;;9.43;6.50;;;28.80;58.30;;;;;;5112275;28;20067;-53
2021/08/12 08:42:21;;;;;;;8.90;7.07;;;28.80;58.50;;;;;;5111991;28;20058;-53
2021/08/12 08:44:50;;;;;;;10.50;6.35;;;28.90;58.00;;;;;;5113248;28;20024;-53
2021/08/12 08:47:17;;;;;;;10.75;6.63;;;28.90;58.00;;;;;;5112173;28;20043;-53
2021/08/12 08:49:46;;;;;;;9.85;6.55;;;29.00;58.20;;;;;;5112986;28;20027;-54
2021/08/12 08:52:14;;;;;;;7.45;5.60;;;29.10;58.10;;;;;;5112427;28;20039;-55
2021/08/12 08:54:42;;;;;;;7.05;5.80;;;29.00;56.30;;;;;;5112043;28;20373;-51
2021/08/12 08:57:09;;;;;;;10.20;6.60;;;29.10;56.60;;;;;;5111799;28;20055;-52
2021/08/12 08:59:36;;;;;;;8.77;6.05;;;29.10;56.30;;;;;;5113192;28;20035;-55
2021/08/12 09:02:04;;;;;;;9.40;5.70;;;29.10;56.70;;;;;;5112461;28;20047;-55
2021/08/12 09:04:38;;;;;;;10.10;6.88;;;29.20;56.40;;;;;;5112297;28;20043;-53
2021/08/12 09:07:09;;;;;;;11.82;6.95;;;29.10;56.10;;;;;;5113426;28;20036;-52
2021/08/12 09:09:38;;;;;;;8.98;5.45;;;29.10;56.30;;;;;;5111880;28;20039;-51
2021/08/12 09:12:06;;;;;;;12.55;5.95;;;29.20;56.10;;;;;;5112349;28;20039;-52
2021/08/12 09:14:36;;;;;;;9.90;6.30;;;29.30;56.30;;;;;;5112032;28;20044;-52
2021/08/12 09:17:18;;;;;;;11.35;6.35;;;29.40;56.30;;;;;;5111758;28;20055;-48
2021/08/12 09:20:08;;;;;;;9.30;6.32;;;29.40;55.80;;;;;;5112617;28;20024;-48
2021/08/12 09:23:06;;;;;;;12.15;6.20;;;29.50;55.40;;;;;;5112440;28;20043;-51
2021/08/12 09:25:41;;;;;;;8.27;6.72;;;29.50;55.20;;;;;;5112012;28;20065;-50
2021/08/12 09:28:16;;;;;;;9.45;5.85;;;29.50;55.30;;;;;;5111950;28;20040;-52
2021/08/12 09:30:45;;;;;;;10.00;6.03;;;29.50;55.50;;;;;;5112064;28;20044;-53
2021/08/12 09:33:17;;;;;;;7.82;6.30;;;29.60;55.60;;;;;;5113229;28;20056;-50
2021/08/12 09:35:45;;;;;;;10.02;6.18;;;29.70;56.00;;;;;;5114636;28;20051;-53
2021/08/12 09:38:13;;;;;;;9.43;6.60;;;29.70;56.20;;;;;;5116779;28;20031;-51
2021/08/12 09:40:40;;;;;;;8.32;6.90;;;29.80;55.90;;;;;;5115341;28;20048;-52
2021/08/12 09:43:08;;;;;;;10.68;6.10;;;29.80;55.60;;;;;;5115848;28;20039;-53
2021/08/12 09:45:36;;;;;;;10.43;8.05;;;29.80;56.60;;;;;;5116013;28;20391;-53
2021/08/12 09:48:13;;;;;;;11.10;6.65;;;29.90;56.80;;;;;;5115938;28;20396;-51
2021/08/12 09:50:40;;;;;;;12.40;6.70;;;29.90;56.60;;;;;;5115466;28;20047;-53
2021/08/12 09:53:08;;;;;;;7.22;5.63;;;29.90;55.80;;;;;;5115927;28;20036;-54
2021/08/12 09:55:40;;;;;;;9.02;6.00;;;29.80;55.40;;;;;;5116346;28;20031;-53
2021/08/12 09:58:08;;;;;;;8.30;6.60;;;29.80;55.20;;;;;;5116654;28;20023;-54
2021/08/12 10:00:35;;;;;;;8.68;6.13;;;29.90;55.40;;;;;;5115413;28;20058;-53
2021/08/12 10:03:19;;;;;;;7.10;5.85;;;29.90;54.60;;;;;;5114845;28;20042;-55
2021/08/12 10:05:45;;;;;;;9.98;7.25;;;30.00;55.20;;;;;;5116451;28;20031;-52
2021/08/12 10:08:25;;;;;;;7.05;6.13;;;29.90;54.90;;;;;;5115572;28;20043;-53
2021/08/12 10:10:51;;;;;;;9.48;7.03;;;29.90;55.10;;;;;;5115515;28;20046;-50
2021/08/12 10:13:18;;;;;;;8.50;6.28;;;29.90;55.60;;;;;;5116133;27;20039;-53
2021/08/12 10:15:49;;;;;;;9.07;6.20;;;30.00;55.40;;;;;;5115905;28;20043;-54
2021/08/12 10:18:19;;;;;;;7.75;6.30;;;30.00;54.70;;;;;;5115949;28;20034;-59
2021/08/12 10:20:48;;;;;;;14.07;6.38;;;30.10;54.40;;;;;;5115165;28;20040;-55
2021/08/12 10:23:15;;;;;;;7.97;6.47;;;30.20;54.40;;;;;;5115483;28;20044;-57
2021/08/12 10:25:43;;;;;;;8.40;6.45;;;30.20;54.60;;;;;;5115340;28;20077;-56
2021/08/12 10:28:11;;;;;;;8.57;6.07;;;30.30;55.10;;;;;;5115552;28;20039;-55
2021/08/12 10:30:38;;;;;;;10.07;7.43;;;30.30;55.20;;;;;;5114567;28;20058;-54
2021/08/12 10:33:06;;;;;;;8.55;6.57;;;30.40;55.70;;;;;;5115016;28;20495;-55
2021/08/12 10:35:36;;;;;;;7.35;6.00;;;30.40;55.50;;;;;;5114797;28;20040;-54
2021/08/12 10:38:03;;;;;;;9.23;6.67;;;30.50;55.50;;;;;;5114638;28;20053;-55
2021/08/12 10:40:33;;;;;;;8.95;6.10;;;30.50;55.50;;;;;;5114958;28;20039;-53
2021/08/12 10:43:01;;;;;;;10.20;6.15;;;30.60;55.60;;;;;;5115562;28;20036;-49
2021/08/12 10:45:28;;;;;;;9.63;7.32;;;30.70;55.30;;;;;;5114251;28;20154;-51
2021/08/12 10:47:57;;;;;;;8.20;6.80;;;30.70;54.90;;;;;;5113926;28;20043;-52
2021/08/12 10:50:30;;;;;;;7.65;6.70;;;30.70;54.90;;;;;;5114640;28;20040;-49
2021/08/12 10:53:11;;;;;;;9.38;7.13;;;30.70;55.20;;;;;;5115286;28;20032;-54
2021/08/12 10:55:38;;;;;;;10.52;7.30;;;30.60;55.40;;;;;;5114596;28;20276;-49
2021/08/12 10:58:29;;;;;;;15.75;7.30;;;30.60;55.60;;;;;;5114374;28;20039;-49
2021/08/12 11:01:06;;;;;;;7.57;6.65;;;30.70;55.60;;;;;;5114546;28;20047;-51
2021/08/12 11:03:32;;;;;;;7.70;6.47;;;30.70;55.60;;;;;;5114904;28;20384;-51
2021/08/12 11:06:00;;;;;;;9.45;6.57;;;30.70;55.00;;;;;;5113079;28;20044;-49
2021/08/12 11:08:58;;;;;;;8.82;6.63;;;30.70;54.70;;;;;;5113938;28;20483;-50
2021/08/12 11:11:31;;;;;;;9.45;6.40;;;30.70;54.60;;;;;;5114064;28;20044;-50
2021/08/12 11:14:00;;;;;;;8.20;6.43;;;30.70;54.20;;;;;;5114235;28;20480;-53
2021/08/12 11:16:48;;;;;;;9.30;5.90;;;30.80;53.60;;;;;;5115180;28;20471;-51
2021/08/12 11:19:23;;;;;;;8.90;6.25;;;30.90;53.50;;;;;;5107537;28;20044;-52
2021/08/12 11:21:50;;;;;;;9.15;6.10;;;31.00;53.90;;;;;;5113974;28;20066;-55
2021/08/12 11:24:23;;;;;;;10.52;7.38;;;31.00;53.80;;;;;;5114060;28;20043;-51
2021/08/12 11:26:50;;;;;;;9.52;7.03;;;31.00;53.50;;;;;;5112503;28;20376;-54
2021/08/12 11:29:39;;;;;;;8.60;5.80;;;31.00;53.60;;;;;;5113737;28;20489;-51
2021/08/12 11:32:10;;;;;;;8.85;6.75;;;31.10;54.10;;;;;;5114582;28;20050;-50
2021/08/12 11:34:45;;;;;;;9.07;6.72;;;31.10;53.60;;;;;;5114474;28;20464;-53
2021/08/12 11:37:19;;;;;;;10.52;6.63;;;31.10;53.70;;;;;;5113736;28;20423;-52
2021/08/12 11:39:55;;;;;;;14.00;6.80;;;31.20;54.20;;;;;;5113717;28;20040;-53
2021/08/12 11:42:36;;;;;;;8.18;6.32;;;31.20;53.80;;;;;;5113412;28;20048;-54
2021/08/12 11:45:07;;;;;;;7.70;6.53;;;31.20;54.00;;;;;;5113584;28;20050;-51
2021/08/12 11:47:35;;;;;;;7.57;6.65;;;31.30;53.60;;;;;;5113911;28;20074;-49
2021/08/12 11:50:05;;;;;;;8.35;6.38;;;31.40;53.60;;;;;;5113113;28;20044;-50
2021/08/12 11:52:32;;;;;;;;;;;31.20;53.60;;;;;;5114060;28;20480;-50
2021/08/12 11:55:08;;;;;;;8.85;6.75;;;31.30;53.60;;;;;;5113418;28;19918;-54
2021/08/12 11:57:52;;;;;;;11.18;6.88;;;31.40;53.60;;;;;;5112954;28;20042;-53
2021/08/12 12:00:29;;;;;;;9.60;7.38;;;31.40;53.30;;;;;;5113562;28;20054;-53
2021/08/12 12:03:06;;;;;;;7.75;6.55;;;31.40;53.30;;;;;;5112950;28;20423;-53
2021/08/12 12:05:35;;;;;;;8.63;6.47;;;31.40;52.80;;;;;;5112940;28;20040;-52
2021/08/12 12:08:10;;;;;;;14.37;6.60;;;31.40;52.70;;;;;;5113196;28;20054;-53
2021/08/12 12:10:45;;;;;;;7.22;5.93;;;31.30;52.40;;;;;;5112489;28;20054;-54
2021/08/12 12:13:14;;;;;;;7.10;5.88;;;31.20;52.70;;;;;;5113132;28;20031;-55
2021/08/12 12:15:46;;;;;;;7.07;6.43;;;31.30;52.40;;;;;;5112794;28;20051;-53
2021/08/12 12:18:34;;;;;;;8.77;5.78;;;31.30;52.10;;;;;;5113022;28;20265;-56
2021/08/12 12:21:13;;;;;;;8.45;6.68;;;31.40;52.20;;;;;;5109048;28;20391;-52
2021/08/12 12:23:46;;;;;;;9.20;6.57;;;31.40;51.90;;;;;;5110949;28;20039;-53
2021/08/12 12:26:29;;;;;;;7.65;5.55;;;31.40;51.50;;;;;;5113093;27;20042;-53
2021/08/12 12:28:56;;;;;;;8.95;7.40;;;31.40;51.70;;;;;;5112720;28;20502;-49
2021/08/12 12:31:23;;;;;;;9.93;5.60;;;31.40;52.30;;;;;;5113026;28;20472;-51
2021/08/12 12:34:03;;;;;;;8.38;6.53;;;31.50;52.70;;;;;;5112985;28;20379;-50
2021/08/12 12:36:37;;;;;;;8.02;6.25;;;31.60;52.90;;;;;;5111851;28;20372;-50
2021/08/12 12:39:05;;;;;;;12.10;6.93;;;31.60;53.10;;;;;;5110724;28;20101;-48
2021/08/12 12:41:32;;;;;;;10.45;6.82;;;31.60;53.10;;;;;;5111937;28;20403;-51
2021/08/12 12:44:08;;;;;;;7.80;7.00;;;31.60;53.20;;;;;;5093157;28;20063;-52
2021/08/12 12:46:35;;;;;;;9.13;6.50;;;31.70;52.80;;;;;;5092332;28;20073;-53
2021/08/12 12:49:23;;;;;;;7.70;6.47;;;31.70;51.80;;;;;;5110623;28;20391;-48
2021/08/12 12:51:51;;;;;;;11.57;6.90;;;31.60;51.40;;;;;;5112918;28;20043;-51
2021/08/12 12:54:31;;;;;;;9.95;6.40;;;31.60;51.40;;;;;;5111818;28;20054;-52
2021/08/12 12:56:58;;;;;;;9.00;6.78;;;31.60;51.40;;;;;;5112983;28;20048;-48